createdAt,value
2022-08-25T00:01:35.854Z,3.40
2022-08-25T00:03:39.636Z,4.00
2022-08-25T00:05:46.325Z,9.18
2022-08-25T00:07:49.976Z,6.88
2022-08-25T00:09:55.503Z,6.32
2022-08-25T00:11:58.915Z,5.00
2022-08-25T00:14:04.059Z,4.22
2022-08-25T00:16:09.927Z,4.30
2022-08-25T00:18:20.021Z,11.07
2022-08-25T00:20:23.532Z,5.28
2022-08-25T00:22:26.459Z,6.55
2022-08-25T00:24:29.674Z,3.42
2022-08-25T00:26:33.983Z,4.68
2022-08-25T00:28:37.017Z,9.02
2022-08-25T00:30:40.047Z,4.32
2022-08-25T00:32:43.066Z,7.28
2022-08-25T00:34:54.768Z,7.68
2022-08-25T00:36:58.102Z,8.80
2022-08-25T00:39:01.091Z,8.38
2022-08-25T00:41:11.282Z,5.95
2022-08-25T00:43:15.555Z,8.55
2022-08-25T00:45:18.829Z,5.40
2022-08-25T00:47:21.963Z,6.95
2022-08-25T00:49:28.924Z,5.75
2022-08-25T00:51:38.464Z,6.00
2022-08-25T00:53:41.523Z,8.02
2022-08-25T00:55:44.635Z,5.95
2022-08-25T00:57:50.929Z,3.28
2022-08-25T00:59:55.511Z,6.82
2022-08-25T01:01:59.030Z,8.65
2022-08-25T01:04:02.723Z,4.75
2022-08-25T01:06:12.052Z,2.85
2022-08-25T01:08:16.215Z,4.68
2022-08-25T01:10:20.668Z,4.47
2022-08-25T01:12:23.897Z,3.40
2022-08-25T01:14:28.431Z,3.70
2022-08-25T01:16:34.025Z,6.13
2022-08-25T01:18:51.294Z,5.72
2022-08-25T01:20:56.161Z,4.68
2022-08-25T01:22:59.460Z,5.47
2022-08-25T01:25:07.669Z,3.13
2022-08-25T01:27:11.359Z,6.65
2022-08-25T01:29:25.215Z,4.10
2022-08-25T01:31:28.962Z,4.63
2022-08-25T01:33:32.113Z,4.15
2022-08-25T01:35:35.804Z,5.40
2022-08-25T01:37:40.104Z,4.50
2022-08-25T01:39:43.408Z,9.27
2022-08-25T01:41:55.511Z,6.70
2022-08-25T01:43:58.452Z,6.55
2022-08-25T01:46:01.478Z,5.43
2022-08-25T01:48:05.555Z,5.80
2022-08-25T01:50:09.412Z,3.38
2022-08-25T01:52:13.909Z,5.38
2022-08-25T01:54:18.213Z,4.03
2022-08-25T01:56:22.174Z,3.85
2022-08-25T01:58:26.893Z,4.55
2022-08-25T02:00:30.034Z,2.85
2022-08-25T02:02:33.062Z,6.35
2022-08-25T02:04:36.239Z,5.60
2022-08-25T02:06:40.882Z,3.85
2022-08-25T02:08:44.170Z,7.40
2022-08-25T02:10:48.489Z,4.05
2022-08-25T02:12:51.737Z,5.60
2022-08-25T02:14:57.274Z,6.10
2022-08-25T02:17:00.230Z,4.57
2022-08-25T02:19:04.057Z,7.80
2022-08-25T02:21:11.357Z,11.13
2022-08-25T02:23:14.813Z,3.15
2022-08-25T02:25:18.022Z,6.40
2022-08-25T02:27:23.468Z,4.45
2022-08-25T02:29:26.461Z,5.95
2022-08-25T02:31:29.809Z,6.95
2022-08-25T02:33:32.928Z,3.30
2022-08-25T02:35:36.479Z,10.65
2022-08-25T02:37:39.555Z,4.85
2022-08-25T02:39:42.506Z,4.82
2022-08-25T02:41:45.411Z,5.80
2022-08-25T02:43:50.537Z,10.07
2022-08-25T02:45:53.606Z,4.43
2022-08-25T02:47:56.720Z,11.77
2022-08-25T02:49:59.818Z,7.50
2022-08-25T02:52:02.803Z,5.82
2022-08-25T02:54:07.287Z,5.20
2022-08-25T02:56:11.605Z,3.13
2022-08-25T02:58:14.822Z,3.42
2022-08-25T03:00:19.648Z,4.97
2022-08-25T03:02:22.876Z,2.78
2022-08-25T03:04:25.924Z,4.75
2022-08-25T03:06:29.335Z,3.88
2022-08-25T03:08:32.205Z,5.82
2022-08-25T03:10:36.282Z,7.43
2022-08-25T03:12:41.516Z,5.25
2022-08-25T03:14:44.421Z,9.25
2022-08-25T03:16:48.986Z,6.63
2022-08-25T03:18:52.189Z,7.13
2022-08-25T03:20:55.181Z,6.63
2022-08-25T03:22:58.132Z,6.55
2022-08-25T03:25:24.137Z,7.20
2022-08-25T03:27:26.969Z,9.57
2022-08-25T03:29:32.839Z,8.20
2022-08-25T03:31:36.707Z,11.02
2022-08-25T03:33:41.165Z,16.65
2022-08-25T03:35:44.104Z,9.00
2022-08-25T03:37:47.027Z,7.68
2022-08-25T03:39:49.965Z,9.65
2022-08-25T03:41:53.283Z,7.03
2022-08-25T03:43:56.322Z,3.25
2022-08-25T03:45:59.245Z,15.05
2022-08-25T03:48:02.313Z,12.30
2022-08-25T03:50:08.288Z,3.95
2022-08-25T03:52:11.199Z,9.25
2022-08-25T03:54:15.481Z,4.68
2022-08-25T03:56:18.462Z,11.88
2022-08-25T03:58:21.371Z,10.25
2022-08-25T04:00:24.732Z,5.95
2022-08-25T04:02:27.703Z,4.95
2022-08-25T04:04:31.069Z,6.53
2022-08-25T04:06:35.537Z,9.75
2022-08-25T04:08:38.601Z,9.68
2022-08-25T04:10:41.610Z,5.80
2022-08-25T04:12:44.541Z,5.88
2022-08-25T04:14:47.491Z,12.07
2022-08-25T04:16:50.750Z,6.00
2022-08-25T04:18:55.011Z,4.97
2022-08-25T04:21:03.301Z,8.57
2022-08-25T04:23:11.322Z,5.38
2022-08-25T04:25:14.815Z,6.72
2022-08-25T04:27:18.036Z,3.63
2022-08-25T04:29:23.580Z,9.10
2022-08-25T04:31:27.647Z,6.32
2022-08-25T04:33:30.913Z,10.85
2022-08-25T04:35:33.804Z,6.07
2022-08-25T04:37:36.755Z,4.95
2022-08-25T04:39:41.345Z,5.93
2022-08-25T04:41:44.602Z,9.07
2022-08-25T04:43:47.727Z,17.00
2022-08-25T04:45:50.737Z,12.25
2022-08-25T04:47:55.106Z,15.07
2022-08-25T04:49:58.245Z,5.80
2022-08-25T04:52:01.129Z,7.63
2022-08-25T04:54:06.317Z,15.85
2022-08-25T04:56:13.655Z,5.90
2022-08-25T04:58:17.878Z,8.68
2022-08-25T05:00:20.985Z,11.05
2022-08-25T05:02:25.215Z,8.68
2022-08-25T05:04:29.088Z,11.05
2022-08-25T05:06:32.443Z,9.93
2022-08-25T05:08:35.879Z,8.18
2022-08-25T05:10:41.606Z,5.32
2022-08-25T05:12:48.174Z,7.80
2022-08-25T05:14:53.728Z,9.75
2022-08-25T05:16:56.745Z,11.45
2022-08-25T05:18:59.733Z,10.80
2022-08-25T05:21:06.071Z,10.00
2022-08-25T05:23:09.507Z,14.15
2022-08-25T05:25:12.480Z,11.82
2022-08-25T05:27:15.397Z,16.27
2022-08-25T05:29:19.624Z,10.60
2022-08-25T05:31:24.062Z,14.80
2022-08-25T05:33:27.704Z,11.25
2022-08-25T05:35:35.891Z,11.05
2022-08-25T05:37:38.855Z,12.45
2022-08-25T05:39:41.799Z,9.05
2022-08-25T05:41:45.009Z,8.63
2022-08-25T05:43:49.664Z,10.75
2022-08-25T05:45:56.356Z,16.10
2022-08-25T05:47:59.880Z,10.60
2022-08-25T05:50:02.987Z,5.68
2022-08-25T05:52:05.927Z,5.57
2022-08-25T05:54:08.930Z,11.07
2022-08-25T05:56:13.912Z,17.42
2022-08-25T05:58:16.851Z,5.13
2022-08-25T06:00:19.935Z,10.57
2022-08-25T06:02:42.088Z,5.38
2022-08-25T06:04:45.082Z,4.15
2022-08-25T06:06:48.814Z,9.27
2022-08-25T06:08:51.798Z,8.90
2022-08-25T06:10:54.730Z,5.95
2022-08-25T06:12:58.745Z,7.60
2022-08-25T06:15:02.129Z,3.63
2022-08-25T06:17:05.348Z,6.53
2022-08-25T06:19:11.381Z,3.75
2022-08-25T06:21:15.198Z,8.48
2022-08-25T06:23:19.108Z,9.50
2022-08-25T06:25:24.083Z,13.63
2022-08-25T06:27:27.119Z,9.00
2022-08-25T06:29:30.053Z,8.85
2022-08-25T06:31:33.021Z,14.88
2022-08-25T06:33:36.000Z,5.72
2022-08-25T06:35:42.714Z,12.10
2022-08-25T06:37:45.835Z,22.20
2022-08-25T06:39:48.780Z,5.82
2022-08-25T06:41:52.965Z,5.85
2022-08-25T06:44:04.757Z,9.70
2022-08-25T06:46:12.186Z,11.73
2022-08-25T06:48:15.556Z,7.80
2022-08-25T06:50:18.555Z,9.15
2022-08-25T06:52:22.882Z,17.92
2022-08-25T06:54:32.505Z,4.68
2022-08-25T06:56:35.575Z,13.63
2022-08-25T06:58:39.457Z,8.32
2022-08-25T07:00:42.574Z,8.82
2022-08-25T07:02:47.098Z,6.80
2022-08-25T07:04:52.771Z,5.95
2022-08-25T07:06:55.961Z,18.63
2022-08-25T07:09:00.820Z,7.75
2022-08-25T07:11:10.244Z,7.15
2022-08-25T07:13:19.781Z,5.53
2022-08-25T07:15:22.736Z,6.88
2022-08-25T07:17:26.175Z,7.95
2022-08-25T07:19:29.480Z,5.68
2022-08-25T07:21:35.924Z,4.75
2022-08-25T07:23:39.409Z,5.00
2022-08-25T07:25:43.740Z,7.13
2022-08-25T07:27:47.030Z,7.43
2022-08-25T07:29:50.579Z,9.32
2022-08-25T07:31:53.619Z,6.13
2022-08-25T07:34:14.060Z,7.20
2022-08-25T07:36:17.878Z,5.97
2022-08-25T07:38:21.053Z,3.85
2022-08-25T07:40:26.065Z,9.13
2022-08-25T07:42:30.768Z,9.18
2022-08-25T07:44:33.994Z,4.38
2022-08-25T07:46:37.523Z,11.35
2022-08-25T07:48:40.665Z,4.90
2022-08-25T07:50:46.187Z,4.68
2022-08-25T07:52:52.239Z,6.00
2022-08-25T07:54:58.354Z,5.95
2022-08-25T07:57:01.340Z,4.65
2022-08-25T07:59:06.324Z,6.28
2022-08-25T08:01:14.318Z,5.35
2022-08-25T08:03:35.183Z,6.57
2022-08-25T08:05:42.209Z,6.68
2022-08-25T08:07:45.188Z,8.13
2022-08-25T08:09:53.113Z,4.20
2022-08-25T08:11:59.441Z,5.68
2022-08-25T08:14:05.087Z,10.05
2022-08-25T08:16:11.894Z,4.07
2022-08-25T08:18:16.382Z,6.65
2022-08-25T08:20:23.151Z,4.20
2022-08-25T08:22:27.193Z,4.70
2022-08-25T08:24:54.545Z,6.13
2022-08-25T08:26:59.039Z,6.40
2022-08-25T08:29:02.892Z,4.30
2022-08-25T08:31:10.725Z,5.75
2022-08-25T08:33:14.061Z,7.35
2022-08-25T08:35:19.012Z,5.38
2022-08-25T08:37:23.042Z,6.35
2022-08-25T08:39:26.726Z,7.97
2022-08-25T08:42:12.111Z,10.60
2022-08-25T08:44:23.512Z,8.02
2022-08-25T08:46:40.928Z,14.77
2022-08-25T08:48:57.286Z,7.45
2022-08-25T08:51:15.056Z,6.97
2022-08-25T08:53:24.224Z,8.80
2022-08-25T08:55:31.870Z,7.38
2022-08-25T08:57:38.885Z,13.35
2022-08-25T08:59:48.741Z,18.50
2022-08-25T09:01:59.306Z,6.47
2022-08-25T09:04:07.579Z,6.90
2022-08-25T09:06:14.075Z,8.52
2022-08-25T09:08:20.267Z,4.30
2022-08-25T09:10:25.372Z,6.50
2022-08-25T09:12:34.892Z,5.00
2022-08-25T09:14:47.562Z,5.20
2022-08-25T09:17:02.664Z,6.15
2022-08-25T09:19:21.444Z,8.25
2022-08-25T09:21:33.485Z,8.50
2022-08-25T09:23:44.289Z,4.22
2022-08-25T09:25:54.152Z,5.63
2022-08-25T09:28:06.812Z,8.63
2022-08-25T09:30:11.813Z,8.23
2022-08-25T09:32:17.128Z,4.93
2022-08-25T09:34:32.252Z,4.70
2022-08-25T09:36:37.909Z,6.38
2022-08-25T09:38:41.469Z,5.20
2022-08-25T09:40:46.528Z,6.13
2022-08-25T09:42:58.131Z,7.90
2022-08-25T09:45:01.904Z,7.20
2022-08-25T09:47:08.401Z,4.32
2022-08-25T09:49:16.883Z,4.88
2022-08-25T09:51:22.961Z,9.20
2022-08-25T09:53:26.814Z,9.45
2022-08-25T09:55:34.285Z,5.00
2022-08-25T09:57:46.792Z,3.85
2022-08-25T09:59:53.691Z,5.13
2022-08-25T10:02:02.908Z,8.63
2022-08-25T10:04:17.726Z,10.15
2022-08-25T10:06:25.479Z,5.50
2022-08-25T10:08:33.933Z,5.63
2022-08-25T10:10:41.927Z,5.55
2022-08-25T10:12:51.576Z,6.38
2022-08-25T10:14:54.784Z,5.32
2022-08-25T10:17:17.610Z,5.13
2022-08-25T10:19:27.217Z,7.20
2022-08-25T10:21:31.695Z,8.25
2022-08-25T10:23:37.065Z,6.53
2022-08-25T10:25:57.714Z,11.93
2022-08-25T10:28:11.973Z,6.15
2022-08-25T10:30:19.287Z,3.70
2022-08-25T10:32:27.175Z,3.70
2022-08-25T10:34:39.649Z,4.95
2022-08-25T10:36:56.110Z,5.18
2022-08-25T10:39:03.033Z,3.30
2022-08-25T10:41:22.596Z,9.32
2022-08-25T10:43:32.325Z,5.15
2022-08-25T10:45:44.502Z,5.03
2022-08-25T10:48:13.151Z,9.82
2022-08-25T10:50:31.264Z,6.93
2022-08-25T10:52:40.935Z,6.68
2022-08-25T10:54:49.008Z,6.40
2022-08-25T10:57:01.771Z,6.60
2022-08-25T10:59:27.777Z,4.53
2022-08-25T11:01:45.247Z,6.13
2022-08-25T11:03:52.376Z,9.10
2022-08-25T11:05:58.073Z,5.57
2022-08-25T11:08:08.213Z,5.88
2022-08-25T11:10:15.228Z,4.35
2022-08-25T11:12:22.347Z,7.50
2022-08-25T11:14:34.331Z,5.82
2022-08-25T11:16:40.774Z,6.10
2022-08-25T11:18:49.830Z,3.47
2022-08-25T11:21:01.670Z,5.90
2022-08-25T11:23:14.466Z,8.27
2022-08-25T11:25:20.030Z,4.95
2022-08-25T11:27:32.613Z,10.18
2022-08-25T11:29:37.638Z,6.20
2022-08-25T11:31:52.835Z,6.30
2022-08-25T11:33:56.840Z,5.53
2022-08-25T11:36:02.545Z,6.47
2022-08-25T11:38:18.626Z,3.90
2022-08-25T11:40:41.916Z,6.85
2022-08-25T11:42:57.870Z,3.00
2022-08-25T11:45:12.331Z,8.25
2022-08-25T11:47:36.322Z,2.97
2022-08-25T11:49:52.071Z,5.03
2022-08-25T11:51:55.279Z,6.00
2022-08-25T11:54:26.441Z,6.60
2022-08-25T11:56:34.936Z,5.22
2022-08-25T11:58:50.350Z,3.13
2022-08-25T12:00:53.820Z,4.55
2022-08-25T12:03:00.946Z,4.78
2022-08-25T12:05:05.944Z,5.55
2022-08-25T12:07:25.273Z,4.07
2022-08-25T12:09:29.721Z,4.85
2022-08-25T12:12:00.628Z,5.40
2022-08-25T12:14:18.156Z,3.85
2022-08-25T12:16:41.411Z,3.60
2022-08-25T12:18:50.433Z,3.67
2022-08-25T12:21:14.393Z,4.30
2022-08-25T12:23:18.086Z,3.40
2022-08-25T12:25:34.319Z,21.35
2022-08-25T12:27:41.832Z,5.05
2022-08-25T12:29:49.679Z,4.22
2022-08-25T12:32:09.405Z,7.30
2022-08-25T12:34:26.777Z,6.93
2022-08-25T12:36:33.255Z,4.00
2022-08-25T12:38:44.107Z,10.43
2022-08-25T12:41:00.378Z,4.28
2022-08-25T12:43:07.114Z,5.32
2022-08-25T12:45:30.944Z,2.65
2022-08-25T12:47:36.365Z,8.45
2022-08-25T12:49:40.149Z,3.80
2022-08-25T12:51:57.473Z,7.80
2022-08-25T12:54:15.837Z,3.35
2022-08-25T12:56:28.607Z,2.85
2022-08-25T12:58:58.761Z,5.32
2022-08-25T13:01:17.554Z,3.67
2022-08-25T13:03:54.733Z,4.03
2022-08-25T13:06:27.310Z,6.95
2022-08-25T13:08:47.981Z,2.83
2022-08-25T13:10:53.189Z,4.65
2022-08-25T13:13:01.952Z,4.05
2022-08-25T13:15:06.289Z,2.50
2022-08-25T13:17:10.863Z,5.22
2022-08-25T13:19:20.394Z,2.72
2022-08-25T13:21:26.780Z,6.45
2022-08-25T13:23:36.382Z,5.50
2022-08-25T13:25:49.253Z,3.22
2022-08-25T13:27:54.196Z,2.95
2022-08-25T13:30:03.525Z,4.53
2022-08-25T13:32:12.651Z,5.65
2022-08-25T13:34:20.600Z,3.85
2022-08-25T13:36:46.988Z,9.75
2022-08-25T13:38:58.565Z,4.03
2022-08-25T13:41:08.237Z,14.20
2022-08-25T13:43:14.940Z,3.55
2022-08-25T13:45:22.312Z,14.38
2022-08-25T13:47:43.663Z,6.65
2022-08-25T13:49:49.177Z,8.63
2022-08-25T13:51:54.923Z,6.00
2022-08-25T13:54:02.052Z,8.52
2022-08-25T13:56:07.770Z,5.32
2022-08-25T13:58:14.981Z,4.70
2022-08-25T14:00:32.789Z,8.45
2022-08-25T14:02:45.369Z,3.67
2022-08-25T14:04:52.959Z,4.43
2022-08-25T14:07:14.354Z,6.20
2022-08-25T14:09:26.608Z,7.40
2022-08-25T14:11:33.352Z,3.35
2022-08-25T14:13:37.276Z,4.28
2022-08-25T14:15:48.235Z,7.55
2022-08-25T14:18:06.343Z,4.60
2022-08-25T14:20:21.972Z,10.32
2022-08-25T14:22:25.632Z,5.00
2022-08-25T14:24:31.374Z,4.75
2022-08-25T14:26:34.400Z,7.57
2022-08-25T14:28:38.351Z,4.05
2022-08-25T14:30:46.231Z,7.40
2022-08-25T14:32:51.747Z,5.15
2022-08-25T14:34:54.984Z,9.05
2022-08-25T14:37:00.127Z,4.95
2022-08-25T14:39:06.083Z,4.38
2022-08-25T14:41:12.284Z,4.10
2022-08-25T14:43:15.736Z,3.17
2022-08-25T14:45:19.838Z,5.13
2022-08-25T14:47:22.803Z,4.00
2022-08-25T14:49:33.798Z,7.30
2022-08-25T14:51:40.325Z,4.40
2022-08-25T14:53:43.896Z,11.27
2022-08-25T14:55:47.680Z,5.55
2022-08-25T14:57:50.823Z,6.25
2022-08-25T14:59:54.051Z,6.47
2022-08-25T15:01:57.613Z,7.97
2022-08-25T15:04:05.467Z,6.18
2022-08-25T15:06:12.784Z,12.55
2022-08-25T15:08:33.464Z,8.90
2022-08-25T15:10:36.807Z,6.05
2022-08-25T15:12:47.509Z,6.72
2022-08-25T15:14:51.179Z,5.07
2022-08-25T15:16:55.933Z,7.40
2022-08-25T15:18:58.987Z,7.80
2022-08-25T15:21:02.865Z,7.10
2022-08-25T15:23:08.858Z,5.32
2022-08-25T15:25:12.283Z,11.82
2022-08-25T15:27:15.625Z,4.07
2022-08-25T15:29:18.722Z,5.18
2022-08-25T15:31:23.595Z,6.72
2022-08-25T15:33:26.811Z,6.60
2022-08-25T15:35:29.996Z,5.20
2022-08-25T15:37:32.977Z,4.32
2022-08-25T15:39:37.440Z,6.97
2022-08-25T15:41:40.582Z,3.90
2022-08-25T15:43:45.777Z,5.60
2022-08-25T15:45:49.963Z,7.18
2022-08-25T15:47:54.216Z,5.43
2022-08-25T15:50:05.456Z,5.05
2022-08-25T15:52:09.682Z,8.70
2022-08-25T15:54:14.393Z,6.10
2022-08-25T15:56:26.672Z,4.07
2022-08-25T15:58:30.181Z,10.05
2022-08-25T16:00:33.573Z,7.97
2022-08-25T16:02:36.767Z,7.88
2022-08-25T16:04:40.534Z,6.75
2022-08-25T16:06:43.835Z,7.03
2022-08-25T16:08:48.341Z,11.05
2022-08-25T16:10:51.405Z,4.45
2022-08-25T16:12:56.124Z,6.18
2022-08-25T16:15:00.303Z,4.65
2022-08-25T16:17:03.359Z,4.30
2022-08-25T16:19:06.780Z,6.40
2022-08-25T16:21:12.539Z,8.98
2022-08-25T16:23:16.825Z,7.53
2022-08-25T16:25:20.607Z,6.53
2022-08-25T16:27:24.475Z,6.38
2022-08-25T16:29:29.073Z,7.70
2022-08-25T16:31:40.315Z,7.55
2022-08-25T16:33:45.304Z,8.23
2022-08-25T16:35:49.299Z,8.00
2022-08-25T16:37:52.583Z,10.18
2022-08-25T16:39:57.781Z,5.63
2022-08-25T16:42:02.441Z,7.63
2022-08-25T16:44:07.721Z,5.93
2022-08-25T16:46:18.041Z,8.52
2022-08-25T16:48:21.020Z,7.75
2022-08-25T16:50:25.825Z,9.77
2022-08-25T16:52:46.078Z,6.53
2022-08-25T16:55:07.108Z,4.85
2022-08-25T16:57:10.339Z,6.60
2022-08-25T16:59:14.613Z,7.00
2022-08-25T17:01:19.024Z,6.07
2022-08-25T17:03:22.137Z,6.30
2022-08-25T17:05:25.277Z,10.13
2022-08-25T17:07:30.325Z,5.18
2022-08-25T17:09:34.731Z,5.72
2022-08-25T17:11:43.059Z,9.13
2022-08-25T17:13:49.741Z,5.85
2022-08-25T17:15:53.225Z,5.60
2022-08-25T17:17:57.742Z,6.28
2022-08-25T17:20:00.677Z,7.28
2022-08-25T17:22:07.746Z,9.50
2022-08-25T17:24:12.470Z,7.95
2022-08-25T17:26:17.301Z,7.70
2022-08-25T17:28:20.468Z,15.10
2022-08-25T17:30:24.360Z,13.23
2022-08-25T17:32:30.597Z,16.90
2022-08-25T17:34:36.576Z,14.77
2022-08-25T17:36:40.667Z,18.48
2022-08-25T17:38:43.982Z,12.38
2022-08-25T17:40:48.098Z,9.18
2022-08-25T17:42:51.683Z,12.82
2022-08-25T17:44:54.641Z,7.53
2022-08-25T17:46:57.704Z,5.20
2022-08-25T17:49:01.215Z,8.88
2022-08-25T17:51:09.134Z,8.60
2022-08-25T17:53:13.138Z,10.68
2022-08-25T17:55:16.679Z,6.63
2022-08-25T17:57:21.833Z,5.57
2022-08-25T17:59:24.848Z,7.15
2022-08-25T18:01:30.510Z,11.07
2022-08-25T18:03:34.203Z,9.30
2022-08-25T18:05:38.444Z,8.25
2022-08-25T18:07:45.079Z,9.40
2022-08-25T18:09:48.237Z,12.43
2022-08-25T18:11:52.544Z,8.40
2022-08-25T18:13:56.448Z,8.05
2022-08-25T18:15:59.532Z,13.23
2022-08-25T18:18:04.646Z,8.50
2022-08-25T18:20:11.123Z,10.77
2022-08-25T18:22:14.064Z,12.30
2022-08-25T18:24:18.484Z,9.73
2022-08-25T18:26:25.535Z,10.80
2022-08-25T18:28:28.811Z,9.82
2022-08-25T18:30:32.040Z,10.07
2022-08-25T18:32:34.998Z,5.40
2022-08-25T18:34:38.978Z,12.13
2022-08-25T18:36:43.417Z,14.10
2022-08-25T18:39:05.555Z,14.15
2022-08-25T18:41:13.384Z,8.68
2022-08-25T18:43:17.602Z,13.25
2022-08-25T18:45:23.364Z,6.60
2022-08-25T18:47:27.683Z,15.80
2022-08-25T18:49:30.634Z,14.02
2022-08-25T18:51:33.613Z,10.68
2022-08-25T18:53:49.702Z,19.10
2022-08-25T18:55:54.391Z,8.10
2022-08-25T18:57:59.285Z,15.00
2022-08-25T19:00:02.444Z,12.00
2022-08-25T19:02:07.789Z,15.57
2022-08-25T19:04:10.761Z,10.65
2022-08-25T19:06:13.795Z,6.68
2022-08-25T19:08:18.536Z,9.10
2022-08-25T19:10:24.883Z,8.45
2022-08-25T19:12:27.842Z,7.80
2022-08-25T19:14:33.387Z,8.82
2022-08-25T19:16:38.717Z,18.75
2022-08-25T19:18:42.582Z,10.20
2022-08-25T19:20:45.863Z,11.50
2022-08-25T19:22:49.226Z,11.45
2022-08-25T19:24:52.178Z,10.23
2022-08-25T19:26:55.173Z,10.63
2022-08-25T19:28:58.201Z,7.72
2022-08-25T19:31:04.156Z,13.95
2022-08-25T19:33:11.667Z,10.23
2022-08-25T19:35:20.151Z,8.07
2022-08-25T19:37:26.091Z,9.10
2022-08-25T19:39:30.697Z,10.98
2022-08-25T19:41:34.259Z,10.35
2022-08-25T19:43:38.750Z,8.90
2022-08-25T19:45:43.360Z,392.13
2022-08-25T19:47:47.809Z,265.65
2022-08-25T19:49:51.029Z,585.33
2022-08-25T19:51:55.951Z,473.25
2022-08-25T19:54:01.582Z,10.63
2022-08-25T19:56:09.260Z,12.65
2022-08-25T19:58:14.947Z,12.02
2022-08-25T20:00:20.732Z,9.10
2022-08-25T20:02:25.905Z,11.35
2022-08-25T20:04:34.234Z,16.45
2022-08-25T20:06:38.115Z,12.38
2022-08-25T20:08:41.348Z,15.88
2022-08-25T20:10:46.202Z,11.48
2022-08-25T20:12:50.155Z,14.23
2022-08-25T20:14:54.561Z,7.95
2022-08-25T20:16:58.112Z,10.75
2022-08-25T20:19:01.710Z,9.63
2022-08-25T20:21:09.840Z,8.18
2022-08-25T20:23:30.364Z,10.63
2022-08-25T20:25:36.973Z,10.25
2022-08-25T20:27:42.268Z,13.90
2022-08-25T20:29:45.325Z,20.15
2022-08-25T20:31:48.664Z,10.07
2022-08-25T20:33:52.706Z,9.10
2022-08-25T20:35:55.881Z,8.52
2022-08-25T20:38:00.998Z,10.82
2022-08-25T20:40:04.895Z,12.52
2022-08-25T20:42:08.539Z,6.88
2022-08-25T20:44:11.769Z,14.50
2022-08-25T20:46:15.058Z,10.13
2022-08-25T20:48:19.879Z,8.15
2022-08-25T20:50:24.003Z,6.55
2022-08-25T20:52:27.193Z,7.60
2022-08-25T20:54:31.931Z,9.20
2022-08-25T20:56:35.567Z,23.33
2022-08-25T20:58:41.395Z,6.75
2022-08-25T21:00:44.809Z,6.88
2022-08-25T21:02:49.951Z,11.00
2022-08-25T21:04:53.352Z,11.30
2022-08-25T21:06:57.080Z,10.40
2022-08-25T21:09:00.014Z,12.15
2022-08-25T21:11:07.338Z,8.25
2022-08-25T21:13:10.416Z,7.03
2022-08-25T21:15:18.232Z,7.93
2022-08-25T21:17:21.432Z,12.13
2022-08-25T21:19:30.057Z,13.05
2022-08-25T21:21:33.529Z,15.15
2022-08-25T21:23:36.518Z,9.25
2022-08-25T21:25:41.479Z,8.55
2022-08-25T21:27:46.112Z,9.18
2022-08-25T21:29:54.615Z,10.20
2022-08-25T21:31:58.631Z,10.90
2022-08-25T21:34:02.166Z,8.73
2022-08-25T21:36:08.802Z,17.48
2022-08-25T21:38:11.947Z,12.57
2022-08-25T21:40:15.104Z,9.80
2022-08-25T21:42:19.359Z,9.60
2022-08-25T21:44:23.774Z,8.05
2022-08-25T21:46:31.520Z,10.48
2022-08-25T21:48:34.774Z,8.60
2022-08-25T21:50:39.088Z,10.32
2022-08-25T21:52:42.543Z,9.73
2022-08-25T21:54:45.762Z,11.50
2022-08-25T21:56:52.796Z,13.40
2022-08-25T21:58:56.303Z,8.82
2022-08-25T22:01:11.296Z,10.10
2022-08-25T22:03:14.435Z,6.93
2022-08-25T22:05:17.494Z,9.75
2022-08-25T22:07:20.657Z,9.55
2022-08-25T22:09:25.974Z,8.93
2022-08-25T22:11:36.033Z,9.55
2022-08-25T22:13:41.249Z,7.32
2022-08-25T22:15:46.450Z,10.38
2022-08-25T22:17:56.591Z,8.77
2022-08-25T22:19:59.814Z,9.82
2022-08-25T22:22:04.389Z,13.38
2022-08-25T22:24:07.830Z,8.57
2022-08-25T22:26:10.918Z,9.75
2022-08-25T22:28:15.816Z,11.45
2022-08-25T22:30:19.279Z,11.60
2022-08-25T22:32:22.736Z,6.45
2022-08-25T22:34:30.370Z,9.07
2022-08-25T22:36:37.615Z,8.90
2022-08-25T22:38:40.579Z,7.43
2022-08-25T22:40:43.714Z,6.40
2022-08-25T22:42:48.174Z,9.40
2022-08-25T22:44:51.380Z,8.73
2022-08-25T22:46:54.700Z,6.80
2022-08-25T22:48:58.566Z,9.82
2022-08-25T22:51:11.434Z,10.95
2022-08-25T22:53:14.698Z,7.63
2022-08-25T22:55:18.247Z,8.48
2022-08-25T22:57:25.202Z,10.00
2022-08-25T22:59:28.310Z,9.38
2022-08-25T23:01:33.107Z,9.38
2022-08-25T23:03:36.155Z,10.52
2022-08-25T23:05:47.235Z,6.47
2022-08-25T23:07:51.863Z,13.65
2022-08-25T23:09:55.194Z,15.18
2022-08-25T23:11:58.669Z,10.30
2022-08-25T23:14:02.264Z,12.07
2022-08-25T23:16:09.059Z,7.30
2022-08-25T23:18:12.359Z,14.82
2022-08-25T23:20:32.864Z,13.63
2022-08-25T23:22:36.107Z,12.65
2022-08-25T23:24:43.023Z,10.90
2022-08-25T23:26:51.096Z,8.00
2022-08-25T23:28:54.608Z,8.63
2022-08-25T23:30:59.264Z,8.80
2022-08-25T23:33:03.014Z,10.35
2022-08-25T23:35:07.600Z,9.30
2022-08-25T23:37:11.129Z,8.05
2022-08-25T23:39:14.371Z,11.70
2022-08-25T23:41:25.531Z,9.95
2022-08-25T23:43:28.512Z,14.60
2022-08-25T23:45:31.678Z,7.53
2022-08-25T23:47:34.756Z,8.00
2022-08-25T23:49:38.078Z,8.93
2022-08-25T23:51:42.090Z,11.80
2022-08-25T23:53:45.192Z,15.18
2022-08-25T23:55:51.278Z,8.55
2022-08-25T23:57:59.431Z,8.60
